Time;durP1;ratioP1;P1;durP2;ratioP2;P2;SDS_P1;SDS_P2;PMS_P1;PMS_P2;Temp;Humidity;BMP_temperature;BMP_pressure;BME280_temperature;BME280_humidity;BME280_pressure;Samples;Min_cycle;Max_cycle;Signal;HPM_P1;HPM_P2
2022/05/08 00:01:05;;;;;;;22.73;12.88;;;11.70;99.90;;;;;;5094738;28;20389;-69
2022/05/08 00:03:30;;;;;;;23.42;12.32;;;11.70;99.90;;;;;;5093426;28;20050;-69
2022/05/08 00:05:56;;;;;;;19.98;12.32;;;11.70;99.90;;;;;;5094704;28;20028;-69
2022/05/08 00:08:22;;;;;;;24.63;12.75;;;11.70;99.90;;;;;;5094826;28;20024;-68
2022/05/08 00:10:47;;;;;;;20.88;12.38;;;11.70;99.90;;;;;;5093241;28;20466;-68
2022/05/08 00:13:14;;;;;;;18.98;12.10;;;11.60;99.90;;;;;;5094477;28;20024;-69
2022/05/08 00:15:40;;;;;;;21.02;12.15;;;11.60;99.90;;;;;;5093209;28;20024;-69
2022/05/08 00:18:06;;;;;;;23.73;12.98;;;11.60;99.90;;;;;;5094363;28;20492;-68
2022/05/08 00:20:32;;;;;;;22.77;12.38;;;11.60;99.90;;;;;;5094360;28;20390;-68
2022/05/08 00:22:58;;;;;;;19.63;12.02;;;11.60;99.90;;;;;;5094600;28;20017;-68
2022/05/08 00:25:26;;;;;;;20.20;12.48;;;11.60;99.90;;;;;;5094204;28;20525;-68
2022/05/08 00:27:51;;;;;;;25.77;13.55;;;11.50;99.90;;;;;;5094486;28;20106;-68
2022/05/08 00:30:17;;;;;;;21.05;12.18;;;11.50;99.90;;;;;;5094229;28;20431;-68
2022/05/08 00:32:42;;;;;;;29.45;13.43;;;11.40;99.90;;;;;;5094084;28;20024;-68
2022/05/08 00:35:10;;;;;;;22.73;13.15;;;11.30;99.90;;;;;;5093932;28;20036;-68
2022/05/08 00:37:36;;;;;;;23.17;13.23;;;11.30;99.90;;;;;;5094059;28;20558;-68
2022/05/08 00:40:01;;;;;;;29.83;14.52;;;11.30;99.90;;;;;;5094086;28;20478;-68
2022/05/08 00:42:27;;;;;;;20.08;13.20;;;11.20;99.90;;;;;;5093961;28;20032;-68
2022/05/08 00:44:53;;;;;;;25.75;13.05;;;11.10;99.90;;;;;;5093950;28;20017;-68
2022/05/08 00:47:18;;;;;;;23.10;13.43;;;11.00;99.90;;;;;;5093846;28;20060;-68
2022/05/08 00:49:44;;;;;;;26.88;13.35;;;10.90;99.90;;;;;;5093790;28;20016;-68
2022/05/08 00:52:09;;;;;;;29.27;12.88;;;10.90;99.90;;;;;;5093761;28;20494;-68
2022/05/08 00:54:35;;;;;;;23.33;13.68;;;10.80;99.90;;;;;;5093793;28;20024;-68
2022/05/08 00:57:01;;;;;;;24.10;13.05;;;10.80;99.90;;;;;;5092388;28;20515;-68
2022/05/08 00:59:27;;;;;;;23.85;12.70;;;10.70;99.90;;;;;;5092603;28;20012;-68
2022/05/08 01:01:52;;;;;;;26.80;12.50;;;10.60;99.90;;;;;;5093751;28;20099;-68
2022/05/08 01:04:18;;;;;;;28.42;12.13;;;10.50;99.90;;;;;;5093617;28;20024;-68
2022/05/08 01:06:45;;;;;;;28.00;12.18;;;10.50;99.90;;;;;;5093512;28;20095;-68
2022/05/08 01:09:10;;;;;;;27.52;11.90;;;10.50;99.90;;;;;;5093710;28;20111;-68
2022/05/08 01:11:36;;;;;;;27.08;10.13;;;10.40;99.90;;;;;;5092194;28;20465;-68
2022/05/08 01:14:02;;;;;;;24.63;10.60;;;10.30;99.90;;;;;;5092365;28;20032;-68
2022/05/08 01:16:28;;;;;;;25.00;11.13;;;10.20;99.90;;;;;;5093564;28;20089;-68
2022/05/08 01:18:53;;;;;;;34.85;11.75;;;10.20;99.90;;;;;;5093481;28;20012;-68
2022/05/08 01:21:39;;;;;;;28.75;11.15;;;10.10;99.90;;;;;;5093298;28;20024;-68
2022/05/08 01:24:05;;;;;;;27.13;9.95;;;10.10;99.90;;;;;;5093372;28;20027;-68
2022/05/08 01:26:31;;;;;;;29.42;11.52;;;10.00;99.90;;;;;;5091880;28;20494;-68
2022/05/08 01:28:56;;;;;;;29.13;10.95;;;9.90;99.90;;;;;;5093217;28;20078;-68
2022/05/08 01:31:22;;;;;;;38.42;11.80;;;9.90;99.90;;;;;;5093343;28;20024;-68
2022/05/08 01:33:47;;;;;;;25.42;10.25;;;9.80;99.90;;;;;;5093266;28;20099;-68
2022/05/08 01:36:13;;;;;;;30.48;11.20;;;9.80;99.90;;;;;;5093107;28;20025;-68
2022/05/08 01:38:38;;;;;;;29.58;10.52;;;9.80;99.90;;;;;;5093189;28;20067;-68
2022/05/08 01:41:04;;;;;;;31.40;10.88;;;9.80;99.90;;;;;;5093218;28;20073;-68
2022/05/08 01:43:36;;;;;;;37.30;10.40;;;9.70;99.90;;;;;;5093439;28;20043;-68
2022/05/08 01:46:03;;;;;;;32.55;11.07;;;9.70;99.90;;;;;;5093217;28;20393;-68
2022/05/08 01:48:28;;;;;;;25.38;9.98;;;9.70;99.90;;;;;;5091890;28;20110;-68
2022/05/08 01:50:56;;;;;;;27.73;10.10;;;9.70;99.90;;;;;;5093228;28;20103;-68
2022/05/08 01:53:25;;;;;;;35.70;10.00;;;9.70;99.90;;;;;;5091977;28;20119;-68
2022/05/08 01:55:54;;;;;;;25.90;10.10;;;9.80;99.90;;;;;;5093723;28;20035;-68
2022/05/08 01:58:20;;;;;;;28.83;9.18;;;9.70;99.90;;;;;;5093282;28;20028;-68
2022/05/08 02:00:47;;;;;;;29.55;9.23;;;9.70;99.90;;;;;;5093282;28;20020;-68
2022/05/08 02:03:13;;;;;;;32.58;9.25;;;9.80;99.90;;;;;;5092949;28;20032;-67
2022/05/08 02:05:42;;;;;;;35.70;9.80;;;9.70;99.90;;;;;;5093199;28;20144;-67
2022/05/08 02:08:07;;;;;;;36.33;9.45;;;9.70;99.90;;;;;;5076442;28;20032;-68
2022/05/08 02:10:33;;;;;;;32.30;10.18;;;9.60;99.90;;;;;;5096829;28;20024;-68
2022/05/08 02:12:58;;;;;;;26.55;8.27;;;9.60;99.90;;;;;;5096811;28;20252;-67
2022/05/08 02:15:29;;;;;;;24.27;7.50;;;9.70;99.90;;;;;;5096769;28;20036;-68
2022/05/08 02:17:57;;;;;;;29.15;8.52;;;9.70;99.90;;;;;;5096815;28;20024;-68
2022/05/08 02:20:23;;;;;;;30.20;8.93;;;9.60;99.90;;;;;;5096762;28;20024;-67
2022/05/08 02:22:49;;;;;;;30.23;9.25;;;9.60;99.90;;;;;;5096886;28;20034;-67
2022/05/08 02:25:14;;;;;;;27.85;8.38;;;9.60;99.90;;;;;;5096408;28;20500;-68
2022/05/08 02:27:41;;;;;;;25.52;7.88;;;9.70;99.90;;;;;;5096514;28;20077;-67
2022/05/08 02:30:10;;;;;;;26.00;8.98;;;9.60;99.90;;;;;;5096494;28;20016;-67
2022/05/08 02:32:37;;;;;;;27.40;9.55;;;9.60;99.90;;;;;;5096486;28;20016;-67
2022/05/08 02:35:04;;;;;;;30.92;8.90;;;9.60;99.90;;;;;;5096313;28;20073;-67
2022/05/08 02:37:30;;;;;;;23.73;8.95;;;9.60;99.90;;;;;;5096371;28;20020;-67
2022/05/08 02:39:56;;;;;;;27.60;9.07;;;9.60;99.90;;;;;;5096402;28;20560;-67
2022/05/08 02:42:21;;;;;;;26.95;8.32;;;9.60;99.90;;;;;;5096535;28;20023;-67
2022/05/08 02:44:47;;;;;;;30.83;9.05;;;9.60;99.90;;;;;;5096212;28;20470;-67
2022/05/08 02:47:12;;;;;;;26.40;8.05;;;9.50;99.90;;;;;;5096112;28;20024;-67
2022/05/08 02:49:38;;;;;;;27.63;8.80;;;9.50;99.90;;;;;;5096143;28;20025;-67
2022/05/08 02:52:04;;;;;;;31.70;8.60;;;9.50;99.90;;;;;;5096278;28;20390;-67
2022/05/08 02:54:29;;;;;;;40.58;9.15;;;9.50;99.90;;;;;;5095992;28;20094;-67
2022/05/08 02:59:40;;;;;;;43.80;9.35;;;9.40;99.90;;;;;;5095740;28;20536;-67
2022/05/08 03:02:07;;;;;;;30.17;8.70;;;9.40;99.90;;;;;;5095840;28;20028;-67
2022/05/08 03:04:33;;;;;;;31.73;8.73;;;9.40;99.90;;;;;;5094922;28;20024;-67
2022/05/08 03:06:58;;;;;;;35.85;8.63;;;9.40;99.90;;;;;;5095718;28;20471;-68
2022/05/08 03:09:24;;;;;;;35.83;8.35;;;9.40;99.90;;;;;;5095740;28;20035;-67
2022/05/08 03:11:49;;;;;;;39.45;8.55;;;9.30;99.90;;;;;;5095683;28;20028;-67
2022/05/08 03:14:15;;;;;;;38.55;9.68;;;9.30;99.90;;;;;;5095664;28;20500;-67
2022/05/08 03:16:41;;;;;;;31.05;8.55;;;9.20;99.90;;;;;;5095776;28;20035;-67
2022/05/08 03:19:06;;;;;;;33.30;8.77;;;9.20;99.90;;;;;;5094218;28;20138;-67
2022/05/08 03:21:34;;;;;;;27.63;7.90;;;9.20;99.90;;;;;;5095597;28;20020;-67
2022/05/08 03:24:00;;;;;;;26.08;8.35;;;9.10;99.90;;;;;;5094271;28;20386;-67
2022/05/08 03:26:28;;;;;;;30.30;8.15;;;9.10;99.90;;;;;;5094099;28;20161;-67
2022/05/08 03:28:53;;;;;;;37.58;8.40;;;9.10;99.90;;;;;;5095442;28;20016;-67
2022/05/08 03:31:20;;;;;;;35.72;8.45;;;9.10;99.90;;;;;;5095548;28;20389;-67
2022/05/08 03:33:46;;;;;;;36.33;8.77;;;9.10;99.90;;;;;;5095542;28;20024;-67
2022/05/08 03:36:11;;;;;;;32.08;8.85;;;9.10;99.90;;;;;;5095190;28;20074;-67
2022/05/08 03:38:43;;;;;;;24.85;7.25;;;9.00;99.90;;;;;;5095239;28;20071;-67
2022/05/08 03:41:09;;;;;;;25.20;7.97;;;8.90;99.90;;;;;;5095106;28;20024;-67
2022/05/08 03:43:36;;;;;;;30.70;8.60;;;8.90;99.90;;;;;;5093832;28;20136;-68
2022/05/08 03:46:02;;;;;;;38.05;9.30;;;8.90;99.90;;;;;;5095060;28;20020;-67
2022/05/08 03:48:27;;;;;;;33.40;8.75;;;8.90;99.90;;;;;;5095035;28;20452;-68
2022/05/08 03:50:53;;;;;;;33.00;9.40;;;8.90;99.90;;;;;;5093657;28;20058;-68
2022/05/08 03:53:18;;;;;;;34.45;9.05;;;8.90;99.90;;;;;;5095150;28;20036;-67
2022/05/08 03:55:44;;;;;;;34.65;9.25;;;8.90;99.90;;;;;;5094788;28;20111;-67
2022/05/08 03:58:09;;;;;;;36.05;8.80;;;8.80;99.90;;;;;;5094796;28;20032;-67
2022/05/08 04:00:35;;;;;;;31.45;8.90;;;8.80;99.90;;;;;;5093574;28;20016;-67
2022/05/08 04:03:01;;;;;;;38.10;8.68;;;8.80;99.90;;;;;;5094631;28;20028;-67
2022/05/08 04:05:27;;;;;;;33.55;8.82;;;8.80;99.90;;;;;;5094907;28;20382;-68
2022/05/08 04:07:53;;;;;;;37.03;8.43;;;8.80;99.90;;;;;;5094860;28;20032;-68
2022/05/08 04:10:19;;;;;;;40.58;9.30;;;8.80;99.90;;;;;;5094823;28;20024;-68
2022/05/08 04:12:44;;;;;;;34.38;7.63;;;8.80;99.90;;;;;;5094729;28;20056;-67
2022/05/08 04:17:56;;;;;;;35.28;9.43;;;8.70;99.90;;;;;;5094249;28;20017;-67
2022/05/08 04:20:22;;;;;;;41.65;9.38;;;8.70;99.90;;;;;;5094315;28;20074;-68
2022/05/08 04:25:33;;;;;;;30.88;8.48;;;8.70;99.90;;;;;;5093983;28;20467;-67
2022/05/08 04:27:58;;;;;;;33.25;7.72;;;8.80;99.90;;;;;;5092937;28;20055;-67
2022/05/08 04:30:24;;;;;;;34.38;9.23;;;8.80;99.90;;;;;;5093728;28;20035;-68
2022/05/08 04:32:50;;;;;;;27.65;8.20;;;8.80;99.90;;;;;;5094385;28;20031;-68
2022/05/08 04:35:15;;;;;;;25.30;8.48;;;8.80;99.90;;;;;;5094259;28;20545;-67
2022/05/08 04:37:41;;;;;;;39.15;9.27;;;8.80;99.90;;;;;;5094074;28;20058;-67
2022/05/08 04:40:07;;;;;;;33.15;7.93;;;8.80;99.90;;;;;;5094053;28;20020;-68
2022/05/08 04:42:33;;;;;;;33.00;8.20;;;8.90;99.90;;;;;;5092662;28;20478;-67
2022/05/08 04:44:59;;;;;;;31.42;7.65;;;9.00;99.90;;;;;;5094035;28;20045;-67
2022/05/08 04:47:25;;;;;;;31.77;8.90;;;9.00;99.90;;;;;;5092735;28;20479;-67
2022/05/08 04:49:51;;;;;;;36.42;8.93;;;9.00;99.90;;;;;;5092538;28;20482;-67
2022/05/08 04:52:17;;;;;;;34.35;8.70;;;9.00;99.90;;;;;;5094012;28;20024;-67
2022/05/08 04:54:43;;;;;;;37.05;8.50;;;9.00;99.90;;;;;;5093978;28;20394;-67
2022/05/08 04:57:08;;;;;;;30.73;8.25;;;9.10;99.90;;;;;;5093653;28;20028;-67
2022/05/08 04:59:34;;;;;;;32.85;7.95;;;9.20;99.90;;;;;;5093749;28;20056;-68
2022/05/08 05:01:59;;;;;;;33.17;8.68;;;9.20;99.90;;;;;;5093680;28;20032;-68
2022/05/08 05:04:25;;;;;;;27.27;7.35;;;9.30;99.90;;;;;;5093734;28;20486;-67
2022/05/08 05:06:51;;;;;;;28.35;7.05;;;9.40;99.90;;;;;;5093829;28;20474;-68
2022/05/08 05:09:16;;;;;;;26.80;7.45;;;9.40;99.90;;;;;;5093546;28;20497;-67
2022/05/08 05:11:42;;;;;;;39.67;7.68;;;9.40;99.90;;;;;;5093401;28;20028;-68
2022/05/08 05:14:08;;;;;;;30.17;7.72;;;9.50;99.90;;;;;;5093512;28;20059;-68
2022/05/08 05:16:33;;;;;;;31.20;7.55;;;9.60;99.90;;;;;;5093449;28;20016;-68
2022/05/08 05:18:59;;;;;;;26.65;7.05;;;9.70;99.90;;;;;;5093518;28;20039;-68
2022/05/08 05:21:24;;;;;;;30.08;8.00;;;9.80;99.90;;;;;;5092338;28;20016;-68
2022/05/08 05:23:50;;;;;;;28.25;7.30;;;10.00;99.90;;;;;;5092172;28;20035;-68
2022/05/08 05:26:15;;;;;;;29.67;7.57;;;10.10;99.90;;;;;;5093027;28;20051;-68
2022/05/08 05:28:43;;;;;;;25.08;7.43;;;9.90;99.90;;;;;;5093345;28;20489;-68
2022/05/08 05:31:08;;;;;;;27.67;6.70;;;10.20;99.90;;;;;;5093577;28;20051;-68
2022/05/08 05:33:34;;;;;;;34.60;7.47;;;10.60;99.90;;;;;;5093344;28;20024;-68
2022/05/08 05:35:59;;;;;;;35.38;6.55;;;10.60;99.90;;;;;;5091910;28;20024;-68
2022/05/08 05:38:25;;;;;;;22.52;6.63;;;10.60;99.90;;;;;;5093361;28;20032;-68
2022/05/08 05:40:50;;;;;;;24.15;6.85;;;10.60;99.90;;;;;;5093197;28;20064;-68
2022/05/08 05:43:16;;;;;;;36.45;7.75;;;10.50;99.90;;;;;;5097065;28;20474;-68
2022/05/08 05:45:41;;;;;;;24.60;6.88;;;10.40;99.90;;;;;;5097581;28;20027;-68
2022/05/08 05:48:07;;;;;;;30.50;8.27;;;10.50;99.90;;;;;;5097386;28;20107;-67
2022/05/08 05:50:33;;;;;;;22.83;6.20;;;10.70;99.90;;;;;;5096142;28;20080;-68
2022/05/08 05:52:59;;;;;;;29.77;7.28;;;10.70;99.90;;;;;;5097400;28;20020;-67
2022/05/08 05:55:24;;;;;;;28.10;7.57;;;10.40;99.90;;;;;;5097427;28;20078;-68
2022/05/08 05:57:53;;;;;;;33.13;7.32;;;10.20;99.90;;;;;;5097140;28;20020;-67
2022/05/08 06:00:20;;;;;;;33.83;6.95;;;10.20;99.90;;;;;;5097117;28;20382;-67
2022/05/08 06:02:47;;;;;;;28.00;7.30;;;10.00;99.90;;;;;;5097054;28;20020;-67
2022/05/08 06:05:14;;;;;;;22.98;7.30;;;10.00;99.90;;;;;;5097275;28;20497;-68
2022/05/08 06:07:42;;;;;;;27.88;7.50;;;10.00;99.90;;;;;;5097019;28;20016;-67
2022/05/08 06:10:09;;;;;;;28.52;7.47;;;10.00;99.90;;;;;;5096821;28;20035;-67
2022/05/08 06:12:35;;;;;;;29.15;7.75;;;10.00;99.90;;;;;;5097108;28;20028;-67
2022/05/08 06:15:01;;;;;;;27.02;6.88;;;10.00;99.90;;;;;;5097012;28;20082;-67
2022/05/08 06:17:26;;;;;;;33.00;7.60;;;10.10;99.90;;;;;;5097148;28;20385;-67
2022/05/08 06:19:52;;;;;;;23.48;6.80;;;10.20;99.90;;;;;;5095533;28;20023;-67
2022/05/08 06:22:17;;;;;;;19.25;6.68;;;10.20;99.90;;;;;;5096908;28;20093;-67
2022/05/08 06:24:43;;;;;;;30.02;6.70;;;10.20;99.90;;;;;;5096735;28;20024;-67
2022/05/08 06:27:08;;;;;;;26.80;7.22;;;10.30;99.90;;;;;;5096618;28;20036;-67
2022/05/08 06:29:34;;;;;;;26.10;7.03;;;10.40;99.90;;;;;;5096587;28;20103;-67
2022/05/08 06:32:00;;;;;;;22.85;6.97;;;10.30;99.90;;;;;;5096487;28;20069;-67
2022/05/08 06:34:26;;;;;;;29.83;7.93;;;10.20;99.90;;;;;;5096473;28;20089;-67
2022/05/08 06:36:52;;;;;;;25.20;6.28;;;10.00;99.90;;;;;;5096322;28;20408;-67
2022/05/08 06:39:18;;;;;;;24.35;6.03;;;10.00;99.90;;;;;;5096374;28;20095;-68
2022/05/08 06:41:43;;;;;;;19.77;5.88;;;10.20;99.90;;;;;;5095351;28;20104;-67
2022/05/08 06:44:09;;;;;;;31.85;6.60;;;10.30;99.90;;;;;;5096236;28;20085;-67
2022/05/08 06:46:36;;;;;;;23.48;7.03;;;10.50;99.90;;;;;;5095082;28;20478;-68
2022/05/08 06:49:03;;;;;;;25.73;5.97;;;10.60;99.90;;;;;;5096153;28;20047;-67
2022/05/08 06:51:28;;;;;;;27.02;6.00;;;10.60;99.90;;;;;;5096227;28;20024;-67
2022/05/08 06:53:54;;;;;;;22.27;6.72;;;10.80;99.90;;;;;;5095324;28;20024;-67
2022/05/08 06:56:20;;;;;;;21.85;5.95;;;10.90;99.90;;;;;;5095953;28;20031;-68
2022/05/08 07:01:38;;;;;;;30.08;6.30;;;11.00;99.90;;;;;;5094712;28;20472;-67
2022/05/08 07:04:07;;;;;;;21.58;5.65;;;10.80;99.90;;;;;;5095903;28;20020;-67
2022/05/08 07:06:33;;;;;;;23.45;5.70;;;10.70;99.90;;;;;;5094685;28;20051;-67
2022/05/08 07:08:59;;;;;;;20.15;5.82;;;10.60;99.90;;;;;;5095706;28;20031;-67
2022/05/08 07:11:25;;;;;;;20.65;5.35;;;10.70;99.90;;;;;;5095741;28;20111;-67
2022/05/08 07:13:50;;;;;;;20.33;5.53;;;10.70;99.90;;;;;;5095934;28;20173;-68
2022/05/08 07:16:16;;;;;;;17.88;4.72;;;10.80;99.90;;;;;;5095575;28;20028;-68
2022/05/08 07:18:42;;;;;;;20.85;5.50;;;11.00;99.90;;;;;;5095617;28;20024;-68
2022/05/08 07:21:07;;;;;;;22.60;5.40;;;10.90;99.90;;;;;;5095590;28;20050;-67
2022/05/08 07:23:33;;;;;;;19.67;5.72;;;11.00;99.90;;;;;;5095773;28;20022;-67
2022/05/08 07:25:58;;;;;;;20.90;5.18;;;11.10;99.90;;;;;;5095315;28;20052;-67
2022/05/08 07:28:24;;;;;;;18.58;5.55;;;11.10;99.90;;;;;;5095343;28;20035;-68
2022/05/08 07:30:50;;;;;;;17.95;5.03;;;11.30;99.90;;;;;;5095349;28;20027;-67
2022/05/08 07:33:16;;;;;;;21.85;5.80;;;11.50;99.90;;;;;;5095580;28;20052;-67
2022/05/08 07:36:14;;;;;;;28.92;5.95;;;11.60;99.90;;;;;;5095183;28;20532;-68
2022/05/08 07:38:29;;;;;;;19.35;4.85;;;11.50;99.90;;;;;;5095058;28;20048;-67
2022/05/08 07:40:56;;;;;;;20.90;5.15;;;11.60;99.90;;;;;;5095406;28;20017;-68
2022/05/08 07:43:22;;;;;;;25.60;5.43;;;11.50;99.90;;;;;;5095347;28;20016;-68
2022/05/08 07:45:47;;;;;;;19.40;4.80;;;11.50;99.90;;;;;;5095065;28;20106;-68
2022/05/08 07:48:13;;;;;;;17.38;4.70;;;11.30;99.90;;;;;;5095251;28;20032;-68
2022/05/08 07:50:41;;;;;;;23.95;5.63;;;11.60;99.90;;;;;;5095210;28;20027;-68
2022/05/08 07:53:07;;;;;;;20.23;5.13;;;12.10;99.90;;;;;;5095267;28;20429;-68
2022/05/08 07:55:33;;;;;;;22.05;6.03;;;12.40;99.90;;;;;;5094992;28;20024;-68
2022/05/08 07:57:58;;;;;;;14.77;4.72;;;12.20;99.90;;;;;;5093923;28;20374;-69
2022/05/08 08:00:24;;;;;;;26.48;7.47;;;11.90;99.90;;;;;;5094754;28;20030;-68
2022/05/08 08:02:49;;;;;;;21.45;5.40;;;11.80;99.90;;;;;;5094708;28;20363;-68
2022/05/08 08:05:15;;;;;;;18.95;5.43;;;11.90;99.90;;;;;;5093645;28;20021;-68
2022/05/08 08:07:40;;;;;;;21.90;6.55;;;12.00;99.90;;;;;;5093448;28;20119;-68
2022/05/08 08:10:06;;;;;;;23.60;5.82;;;11.90;99.90;;;;;;5093672;28;20030;-68
2022/05/08 08:12:32;;;;;;;18.08;5.70;;;11.90;99.90;;;;;;5094614;28;20078;-68
2022/05/08 08:14:59;;;;;;;19.98;5.75;;;12.10;99.90;;;;;;5094777;28;20028;-69
2022/05/08 08:17:25;;;;;;;23.65;5.72;;;12.50;99.90;;;;;;5094366;28;20111;-68
2022/05/08 08:19:51;;;;;;;17.38;5.68;;;12.80;99.90;;;;;;5094362;28;20074;-69
2022/05/08 08:22:17;;;;;;;22.85;6.13;;;12.50;99.90;;;;;;5094337;28;20028;-69
2022/05/08 08:24:43;;;;;;;18.58;6.32;;;12.60;99.90;;;;;;5092843;28;20075;-69
2022/05/08 08:27:08;;;;;;;26.83;6.55;;;12.50;99.90;;;;;;5094297;28;20067;-69
2022/05/08 08:29:34;;;;;;;18.35;5.72;;;12.50;99.90;;;;;;5094420;28;20384;-69
2022/05/08 08:31:59;;;;;;;15.63;5.03;;;12.50;99.90;;;;;;5092912;28;20028;-69
2022/05/08 08:34:26;;;;;;;15.88;5.13;;;12.30;99.90;;;;;;5094090;28;20524;-69
2022/05/08 08:36:52;;;;;;;19.80;5.38;;;12.10;99.90;;;;;;5094263;28;20074;-69
2022/05/08 08:39:18;;;;;;;22.35;5.45;;;12.30;99.90;;;;;;5094078;28;20012;-69
2022/05/08 08:41:51;;;;;;;22.05;5.93;;;12.60;99.90;;;;;;5094001;28;20074;-69
2022/05/08 08:49:52;;;;;;;15.50;5.57;;;12.80;99.90;;;;;;5093706;28;20512;-69
2022/05/08 08:52:21;;;;;;;15.90;4.85;;;12.70;99.90;;;;;;5093782;28;20016;-69
2022/05/08 08:54:46;;;;;;;20.35;5.70;;;12.30;99.90;;;;;;5093820;28;20035;-69
2022/05/08 08:57:12;;;;;;;21.75;5.47;;;12.50;99.90;;;;;;5093672;28;20430;-69
2022/05/08 08:59:37;;;;;;;15.75;4.93;;;13.10;99.90;;;;;;5092345;28;20386;-68
2022/05/08 09:02:03;;;;;;;21.95;6.25;;;13.60;99.90;;;;;;5093891;28;20386;-69
2022/05/08 09:04:29;;;;;;;19.80;5.93;;;13.80;99.90;;;;;;5093633;28;20028;-69
2022/05/08 09:06:55;;;;;;;17.02;5.40;;;13.90;99.90;;;;;;5093572;28;20493;-69
2022/05/08 09:09:23;;;;;;;19.77;5.15;;;14.10;99.90;;;;;;5093563;28;20020;-69
2022/05/08 09:11:50;;;;;;;19.83;5.47;;;14.30;99.90;;;;;;5093873;28;20495;-69
2022/05/08 09:14:34;;;;;;;24.13;5.30;;;14.70;99.90;;;;;;5092350;28;20500;-69
2022/05/08 09:17:01;;;;;;;19.50;4.95;;;15.60;99.90;;;;;;5093074;28;20115;-69
2022/05/08 09:19:42;;;;;;;20.80;5.00;;;16.40;99.90;;;;;;5093407;28;20020;-67
2022/05/08 09:22:11;;;;;;;17.67;5.18;;;15.90;99.90;;;;;;5092575;28;20595;-67
2022/05/08 09:24:52;;;;;;;15.27;4.68;;;15.90;99.90;;;;;;5093466;28;20024;-67
2022/05/08 09:27:20;;;;;;;18.23;4.85;;;16.80;99.90;;;;;;5093555;28;20414;-68
2022/05/08 09:29:45;;;;;;;14.70;4.60;;;16.90;99.90;;;;;;5093272;28;20089;-67
2022/05/08 09:32:42;;;;;;;14.18;4.60;;;17.40;99.90;;;;;;5093253;28;20028;-67
2022/05/08 09:35:07;;;;;;;10.07;4.32;;;17.20;99.90;;;;;;5093227;28;20031;-67
2022/05/08 09:37:33;;;;;;;12.52;4.10;;;16.50;99.90;;;;;;5092255;28;20024;-67
2022/05/08 09:40:19;;;;;;;12.40;4.47;;;16.90;99.90;;;;;;5093297;28;20028;-67
2022/05/08 09:42:46;;;;;;;15.15;5.07;;;16.60;99.90;;;;;;5093145;28;20539;-67
2022/05/08 09:45:12;;;;;;;15.48;5.03;;;16.30;99.90;;;;;;5091991;28;20020;-67
2022/05/08 09:47:43;;;;;;;11.27;4.57;;;16.60;99.90;;;;;;5093195;28;20386;-67
2022/05/08 09:50:10;;;;;;;15.60;5.30;;;16.60;99.90;;;;;;5093351;28;20163;-68
2022/05/08 09:52:39;;;;;;;14.85;5.53;;;15.60;99.90;;;;;;5093159;28;20054;-68
2022/05/08 09:55:06;;;;;;;15.85;5.05;;;16.10;99.90;;;;;;5091912;28;20025;-68
2022/05/08 09:57:33;;;;;;;19.42;6.03;;;15.90;99.90;;;;;;5091823;28;20021;-68
2022/05/08 10:00:00;;;;;;;13.60;4.72;;;16.00;99.90;;;;;;5091994;28;20489;-68
2022/05/08 10:02:26;;;;;;;15.45;5.10;;;16.70;99.90;;;;;;5093005;28;20107;-68
2022/05/08 10:04:52;;;;;;;12.93;5.35;;;16.70;99.90;;;;;;5092941;28;20104;-68
2022/05/08 10:07:19;;;;;;;15.38;4.68;;;16.90;99.90;;;;;;5091760;28;20028;-68
2022/05/08 10:15:19;;;;;;;19.40;5.45;;;16.90;99.90;;;;;;5092614;28;20028;-68
2022/05/08 10:17:45;;;;;;;15.07;5.22;;;16.70;99.90;;;;;;5092837;28;20020;-68
2022/05/08 10:20:10;;;;;;;15.38;5.40;;;16.80;99.90;;;;;;5092755;28;20020;-68
2022/05/08 10:22:51;;;;;;;14.45;4.88;;;16.60;99.90;;;;;;5092795;28;20031;-68
2022/05/08 10:25:17;;;;;;;14.95;4.78;;;17.00;99.90;;;;;;5092536;28;20094;-68
2022/05/08 10:28:03;;;;;;;15.93;5.30;;;17.50;99.90;;;;;;5092635;28;20024;-68
2022/05/08 10:30:29;;;;;;;16.35;4.93;;;17.70;99.90;;;;;;5096578;28;20450;-68
2022/05/08 10:32:55;;;;;;;16.20;5.45;;;18.40;99.90;;;;;;5096709;28;20044;-68
2022/05/08 10:35:25;;;;;;;17.67;5.72;;;;;;;;;;5096641;28;20021;-68
2022/05/08 10:38:19;;;;;;;20.88;5.70;;;18.30;99.90;;;;;;5096386;28;20424;-68
2022/05/08 10:40:46;;;;;;;15.48;4.95;;;18.60;99.90;;;;;;5096569;28;20522;-68
2022/05/08 10:45:49;;;;;;;19.10;5.07;;;18.50;99.90;;;;;;5070508;28;20353;-69
2022/05/08 10:48:17;;;;;;;15.45;5.57;;;18.80;97.60;;;;;;5070542;28;20082;-68
2022/05/08 10:50:59;;;;;;;14.35;4.30;;;18.20;99.90;;;;;;5070355;28;20017;-69
2022/05/08 10:53:30;;;;;;;11.55;4.50;;;18.80;98.90;;;;;;5069155;28;20483;-69
2022/05/08 10:56:06;;;;;;;15.45;4.97;;;19.10;97.80;;;;;;5069025;28;20024;-68
2022/05/08 10:58:33;;;;;;;14.20;5.55;;;18.60;96.30;;;;;;5070380;28;20028;-68
2022/05/08 11:01:03;;;;;;;11.95;5.05;;;17.80;97.00;;;;;;5070526;28;20593;-69
2022/05/08 11:03:29;;;;;;;11.27;5.10;;;18.20;99.90;;;;;;5069222;28;20063;-69
2022/05/08 11:05:56;;;;;;;16.20;5.00;;;17.80;99.90;;;;;;5070131;28;20056;-69
2022/05/08 11:08:25;;;;;;;14.52;5.15;;;17.80;99.90;;;;;;5070330;28;20035;-69
2022/05/08 11:11:10;;;;;;;15.80;5.90;;;18.10;99.90;;;;;;5070105;28;20063;-69
2022/05/08 11:13:38;;;;;;;15.80;5.60;;;17.90;99.90;;;;;;5070119;28;20104;-69
2022/05/08 11:16:03;;;;;;;16.10;5.75;;;18.10;99.90;;;;;;5070057;28;20056;-69
2022/05/08 11:18:29;;;;;;;17.92;5.53;;;17.90;99.90;;;;;;5069891;28;20060;-69
2022/05/08 11:20:57;;;;;;;15.40;4.88;;;17.90;99.90;;;;;;5069835;28;20530;-69
2022/05/08 11:23:26;;;;;;;14.10;5.30;;;17.30;99.90;;;;;;5069993;28;20415;-69
2022/05/08 11:25:54;;;;;;;12.07;4.43;;;17.30;99.90;;;;;;5069771;28;20024;-69
2022/05/08 11:28:22;;;;;;;12.27;4.95;;;17.60;99.90;;;;;;5069659;28;20032;-69
2022/05/08 11:30:50;;;;;;;17.05;5.57;;;17.80;99.90;;;;;;5069927;28;20035;-68
2022/05/08 11:36:06;;;;;;;17.63;5.28;;;17.50;99.90;;;;;;5069380;28;20024;-68
2022/05/08 11:41:19;;;;;;;13.80;4.93;;;17.70;99.90;;;;;;5111089;27;20748;-69
2022/05/08 11:43:46;;;;;;;12.07;4.85;;;18.60;99.90;;;;;;5110976;28;20036;-69
2022/05/08 11:46:15;;;;;;;17.70;4.97;;;18.20;99.90;;;;;;5109792;28;20028;-69
2022/05/08 11:48:42;;;;;;;16.05;5.10;;;18.50;99.90;;;;;;5111222;28;20028;-69
2022/05/08 11:51:09;;;;;;;18.95;5.32;;;18.20;99.00;;;;;;5110847;28;20055;-69
2022/05/08 11:53:43;;;;;;;12.15;4.47;;;18.30;99.90;;;;;;5111004;28;20474;-69
2022/05/08 11:56:29;;;;;;;13.75;5.75;;;18.40;99.90;;;;;;5111075;28;20490;-69
2022/05/08 11:58:57;;;;;;;9.57;5.03;;;18.50;99.90;;;;;;5110614;28;20496;-69
2022/05/08 12:01:29;;;;;;;13.70;5.35;;;18.70;99.90;;;;;;5110914;28;20050;-69
2022/05/08 12:03:56;;;;;;;15.95;5.45;;;18.80;99.90;;;;;;5110931;28;20390;-69
2022/05/08 12:06:22;;;;;;;18.70;5.97;;;18.30;99.90;;;;;;5110855;28;20462;-69
2022/05/08 12:08:48;;;;;;;14.20;4.72;;;18.50;99.90;;;;;;5110830;28;20077;-69
2022/05/08 12:11:32;;;;;;;19.10;6.13;;;18.80;99.90;;;;;;5110572;28;20016;-69
2022/05/08 12:13:59;;;;;;;16.33;5.75;;;18.40;99.20;;;;;;5109264;28;20031;-69
2022/05/08 12:16:25;;;;;;;15.20;5.05;;;18.50;99.90;;;;;;5110680;28;20509;-69
2022/05/08 12:19:11;;;;;;;13.65;5.65;;;18.70;99.90;;;;;;5110215;28;20016;-69
2022/05/08 12:21:39;;;;;;;18.65;5.60;;;18.50;99.90;;;;;;5109153;28;20024;-69
2022/05/08 12:24:09;;;;;;;12.90;6.07;;;18.30;99.90;;;;;;5110545;28;20020;-69
2022/05/08 12:26:35;;;;;;;13.77;5.35;;;18.30;99.90;;;;;;5110248;28;20073;-69
2022/05/08 12:29:00;;;;;;;17.20;6.07;;;18.30;99.90;;;;;;5110160;28;20023;-69
2022/05/08 12:31:26;;;;;;;17.42;6.05;;;18.00;99.90;;;;;;5110131;28;20028;-69
2022/05/08 12:33:51;;;;;;;15.48;6.13;;;18.20;99.90;;;;;;5108796;28;20016;-69
2022/05/08 12:36:16;;;;;;;20.52;5.97;;;18.10;99.90;;;;;;5109995;28;20058;-69
2022/05/08 12:38:42;;;;;;;13.93;4.97;;;18.40;99.90;;;;;;5109919;28;20035;-69
2022/05/08 12:41:07;;;;;;;14.30;5.30;;;18.50;99.90;;;;;;5108518;28;20096;-69
2022/05/08 12:43:33;;;;;;;15.13;5.20;;;18.30;99.90;;;;;;5110033;28;20386;-68
2022/05/08 12:45:59;;;;;;;13.93;5.55;;;18.60;99.90;;;;;;5109782;28;20051;-69
2022/05/08 12:48:24;;;;;;;10.32;4.80;;;18.60;99.90;;;;;;5109813;28;20024;-69
2022/05/08 12:50:51;;;;;;;12.93;4.82;;;18.70;99.90;;;;;;5106231;28;20032;-69
2022/05/08 12:53:16;;;;;;;10.98;4.80;;;19.00;99.70;;;;;;5096441;28;20107;-69
2022/05/08 12:55:42;;;;;;;11.60;4.95;;;18.70;99.90;;;;;;5096158;28;20094;-69
2022/05/08 13:00:54;;;;;;;15.40;5.40;;;19.00;99.90;;;;;;5095799;28;20031;-69
2022/05/08 13:03:19;;;;;;;13.25;5.53;;;19.00;99.90;;;;;;5096187;28;20032;-69
2022/05/08 13:05:45;;;;;;;11.63;4.72;;;18.80;99.60;;;;;;5094750;28;20028;-69
2022/05/08 13:08:10;;;;;;;12.93;5.05;;;19.00;99.90;;;;;;5094674;28;20043;-69
2022/05/08 13:10:36;;;;;;;14.23;4.68;;;19.40;99.10;;;;;;5095907;28;20464;-68